Terminal Aerodrome Forecast
Issued by NWS Lake Charles, LA

Home | Current Version | Previous Version | Text Only | Print | Product List | Glossary On
Versions: 1 2 3 4 5 6 7 8 9 10 11 12 13
547
FTUS44 KLCH 240520
TAFAEX
TAF
KAEX 240520Z 2406/2506 VRB03KT P6SM FEW020 SCT040
     FM241000 VRB03KT 5SM BR BKN020
     FM241500 15009KT P6SM SCT025
     FM250100 16004KT P6SM FEW040=

USA.gov is the U.S. government's official web portal to all federal, state and local government web resources and services.